sensor_id;sensor_type;location;lat;lon;timestamp;P1;durP1;ratioP1;P2;durP2;ratioP2
3589;SDS011;1809;48.470;9.226;2023-11-19T00:00:25;11.73;;;7.97;;
3589;SDS011;1809;48.470;9.226;2023-11-19T00:02:50;12.03;;;7.43;;
3589;SDS011;1809;48.470;9.226;2023-11-19T00:05:16;7.20;;;6.50;;
3589;SDS011;1809;48.470;9.226;2023-11-19T00:07:41;6.37;;;5.77;;
3589;SDS011;1809;48.470;9.226;2023-11-19T00:10:08;8.03;;;7.10;;
3589;SDS011;1809;48.470;9.226;2023-11-19T00:12:41;8.87;;;6.17;;
3589;SDS011;1809;48.470;9.226;2023-11-19T00:15:09;7.60;;;6.83;;
3589;SDS011;1809;48.470;9.226;2023-11-19T00:17:39;5.77;;;5.30;;
3589;SDS011;1809;48.470;9.226;2023-11-19T00:20:19;5.90;;;5.40;;
3589;SDS011;1809;48.470;9.226;2023-11-19T00:22:48;7.07;;;5.17;;
3589;SDS011;1809;48.470;9.226;2023-11-19T00:25:16;7.97;;;6.07;;
3589;SDS011;1809;48.470;9.226;2023-11-19T00:27:42;10.63;;;6.77;;
3589;SDS011;1809;48.470;9.226;2023-11-19T00:30:10;10.13;;;7.63;;
3589;SDS011;1809;48.470;9.226;2023-11-19T00:32:36;7.40;;;5.80;;
3589;SDS011;1809;48.470;9.226;2023-11-19T00:35:03;7.30;;;5.70;;
3589;SDS011;1809;48.470;9.226;2023-11-19T00:37:29;8.63;;;6.63;;
3589;SDS011;1809;48.470;9.226;2023-11-19T00:39:55;7.53;;;4.73;;
3589;SDS011;1809;48.470;9.226;2023-11-19T00:42:23;3.90;;;3.60;;
3589;SDS011;1809;48.470;9.226;2023-11-19T00:44:50;4.00;;;1.27;;
3589;SDS011;1809;48.470;9.226;2023-11-19T00:47:15;0.93;;;0.93;;
3589;SDS011;1809;48.470;9.226;2023-11-19T00:49:41;0.60;;;0.60;;
3589;SDS011;1809;48.470;9.226;2023-11-19T00:52:08;0.40;;;0.40;;
3589;SDS011;1809;48.470;9.226;2023-11-19T00:54:33;1.00;;;0.50;;
3589;SDS011;1809;48.470;9.226;2023-11-19T00:56:59;0.50;;;0.50;;
3589;SDS011;1809;48.470;9.226;2023-11-19T00:59:26;0.40;;;0.40;;
3589;SDS011;1809;48.470;9.226;2023-11-19T01:01:53;0.40;;;0.40;;
3589;SDS011;1809;48.470;9.226;2023-11-19T01:04:19;0.90;;;0.50;;
3589;SDS011;1809;48.470;9.226;2023-11-19T01:06:44;0.40;;;0.40;;
3589;SDS011;1809;48.470;9.226;2023-11-19T01:09:10;0.40;;;0.40;;
3589;SDS011;1809;48.470;9.226;2023-11-19T01:11:35;0.47;;;0.47;;
3589;SDS011;1809;48.470;9.226;2023-11-19T01:14:01;0.40;;;0.40;;
3589;SDS011;1809;48.470;9.226;2023-11-19T01:16:26;0.40;;;0.40;;
3589;SDS011;1809;48.470;9.226;2023-11-19T01:18:52;0.50;;;0.50;;
3589;SDS011;1809;48.470;9.226;2023-11-19T01:21:18;0.43;;;0.43;;
3589;SDS011;1809;48.470;9.226;2023-11-19T01:23:43;0.43;;;0.43;;
3589;SDS011;1809;48.470;9.226;2023-11-19T01:26:09;1.33;;;0.47;;
3589;SDS011;1809;48.470;9.226;2023-11-19T01:28:38;0.43;;;0.43;;
3589;SDS011;1809;48.470;9.226;2023-11-19T01:31:05;0.40;;;0.40;;
3589;SDS011;1809;48.470;9.226;2023-11-19T01:33:33;0.40;;;0.40;;
3589;SDS011;1809;48.470;9.226;2023-11-19T01:36:01;0.50;;;0.50;;
3589;SDS011;1809;48.470;9.226;2023-11-19T01:38:26;0.40;;;0.40;;
3589;SDS011;1809;48.470;9.226;2023-11-19T01:40:55;0.93;;;0.40;;
3589;SDS011;1809;48.470;9.226;2023-11-19T01:43:30;0.50;;;0.50;;
3589;SDS011;1809;48.470;9.226;2023-11-19T01:46:00;0.50;;;0.50;;
3589;SDS011;1809;48.470;9.226;2023-11-19T01:48:27;1.17;;;0.50;;
3589;SDS011;1809;48.470;9.226;2023-11-19T01:50:53;2.93;;;0.50;;
3589;SDS011;1809;48.470;9.226;2023-11-19T01:53:19;0.43;;;0.43;;
3589;SDS011;1809;48.470;9.226;2023-11-19T01:55:47;0.57;;;0.57;;
3589;SDS011;1809;48.470;9.226;2023-11-19T01:58:14;1.43;;;0.40;;
3589;SDS011;1809;48.470;9.226;2023-11-19T02:00:40;0.40;;;0.40;;
3589;SDS011;1809;48.470;9.226;2023-11-19T02:03:06;0.40;;;0.40;;
3589;SDS011;1809;48.470;9.226;2023-11-19T02:05:33;0.40;;;0.40;;
3589;SDS011;1809;48.470;9.226;2023-11-19T02:08:00;0.63;;;0.50;;
3589;SDS011;1809;48.470;9.226;2023-11-19T02:10:26;0.83;;;0.47;;
3589;SDS011;1809;48.470;9.226;2023-11-19T02:12:51;0.40;;;0.40;;
3589;SDS011;1809;48.470;9.226;2023-11-19T02:15:17;0.40;;;0.40;;
3589;SDS011;1809;48.470;9.226;2023-11-19T02:17:47;0.50;;;0.50;;
3589;SDS011;1809;48.470;9.226;2023-11-19T02:20:12;0.47;;;0.47;;
3589;SDS011;1809;48.470;9.226;2023-11-19T02:22:40;0.50;;;0.50;;
3589;SDS011;1809;48.470;9.226;2023-11-19T02:25:12;0.60;;;0.50;;
3589;SDS011;1809;48.470;9.226;2023-11-19T02:30:15;0.60;;;0.40;;
3589;SDS011;1809;48.470;9.226;2023-11-19T02:32:41;0.53;;;0.53;;
3589;SDS011;1809;48.470;9.226;2023-11-19T02:35:07;0.40;;;0.40;;
3589;SDS011;1809;48.470;9.226;2023-11-19T02:37:34;0.60;;;0.60;;
3589;SDS011;1809;48.470;9.226;2023-11-19T02:39:59;0.60;;;0.60;;
3589;SDS011;1809;48.470;9.226;2023-11-19T02:42:34;0.50;;;0.50;;
3589;SDS011;1809;48.470;9.226;2023-11-19T02:45:00;0.60;;;0.50;;
3589;SDS011;1809;48.470;9.226;2023-11-19T02:47:26;0.40;;;0.40;;
3589;SDS011;1809;48.470;9.226;2023-11-19T02:49:55;0.50;;;0.50;;
3589;SDS011;1809;48.470;9.226;2023-11-19T02:52:21;0.50;;;0.50;;
3589;SDS011;1809;48.470;9.226;2023-11-19T02:54:47;0.60;;;0.60;;
3589;SDS011;1809;48.470;9.226;2023-11-19T02:57:12;0.43;;;0.40;;
3589;SDS011;1809;48.470;9.226;2023-11-19T02:59:38;0.47;;;0.47;;
3589;SDS011;1809;48.470;9.226;2023-11-19T03:02:08;0.50;;;0.50;;
3589;SDS011;1809;48.470;9.226;2023-11-19T03:04:37;0.47;;;0.47;;
3589;SDS011;1809;48.470;9.226;2023-11-19T03:07:04;0.50;;;0.50;;
3589;SDS011;1809;48.470;9.226;2023-11-19T03:09:30;0.50;;;0.50;;
3589;SDS011;1809;48.470;9.226;2023-11-19T03:11:56;0.50;;;0.50;;
3589;SDS011;1809;48.470;9.226;2023-11-19T03:14:21;0.50;;;0.50;;
3589;SDS011;1809;48.470;9.226;2023-11-19T03:16:48;0.40;;;0.40;;
3589;SDS011;1809;48.470;9.226;2023-11-19T03:19:13;0.40;;;0.40;;
3589;SDS011;1809;48.470;9.226;2023-11-19T03:21:40;0.40;;;0.40;;
3589;SDS011;1809;48.470;9.226;2023-11-19T03:24:05;0.83;;;0.40;;
3589;SDS011;1809;48.470;9.226;2023-11-19T03:26:32;2.57;;;0.57;;
3589;SDS011;1809;48.470;9.226;2023-11-19T03:28:58;0.40;;;0.40;;
3589;SDS011;1809;48.470;9.226;2023-11-19T03:31:24;0.50;;;0.50;;
3589;SDS011;1809;48.470;9.226;2023-11-19T03:33:50;2.87;;;0.70;;
3589;SDS011;1809;48.470;9.226;2023-11-19T03:36:15;0.50;;;0.50;;
3589;SDS011;1809;48.470;9.226;2023-11-19T03:38:41;0.43;;;0.43;;
3589;SDS011;1809;48.470;9.226;2023-11-19T03:41:14;0.60;;;0.60;;
3589;SDS011;1809;48.470;9.226;2023-11-19T03:43:40;0.50;;;0.50;;
3589;SDS011;1809;48.470;9.226;2023-11-19T03:46:21;1.17;;;0.60;;
3589;SDS011;1809;48.470;9.226;2023-11-19T03:48:50;0.40;;;0.40;;
3589;SDS011;1809;48.470;9.226;2023-11-19T03:51:16;0.43;;;0.43;;
3589;SDS011;1809;48.470;9.226;2023-11-19T03:53:43;1.33;;;0.50;;
3589;SDS011;1809;48.470;9.226;2023-11-19T03:56:08;1.33;;;0.50;;
3589;SDS011;1809;48.470;9.226;2023-11-19T03:58:37;0.70;;;0.70;;
3589;SDS011;1809;48.470;9.226;2023-11-19T04:01:10;0.50;;;0.50;;
3589;SDS011;1809;48.470;9.226;2023-11-19T04:03:38;0.50;;;0.50;;
3589;SDS011;1809;48.470;9.226;2023-11-19T04:06:03;0.97;;;0.80;;
3589;SDS011;1809;48.470;9.226;2023-11-19T04:08:29;0.70;;;0.47;;
3589;SDS011;1809;48.470;9.226;2023-11-19T04:10:55;0.50;;;0.50;;
3589;SDS011;1809;48.470;9.226;2023-11-19T04:13:20;0.53;;;0.53;;
3589;SDS011;1809;48.470;9.226;2023-11-19T04:15:46;1.53;;;0.50;;
3589;SDS011;1809;48.470;9.226;2023-11-19T04:18:11;0.90;;;0.60;;
3589;SDS011;1809;48.470;9.226;2023-11-19T04:20:37;0.57;;;0.57;;
3589;SDS011;1809;48.470;9.226;2023-11-19T04:23:02;0.60;;;0.60;;
3589;SDS011;1809;48.470;9.226;2023-11-19T04:25:28;0.90;;;0.90;;
3589;SDS011;1809;48.470;9.226;2023-11-19T04:27:53;0.60;;;0.60;;
3589;SDS011;1809;48.470;9.226;2023-11-19T04:30:19;0.50;;;0.50;;
3589;SDS011;1809;48.470;9.226;2023-11-19T04:32:44;0.50;;;0.50;;
3589;SDS011;1809;48.470;9.226;2023-11-19T04:35:10;1.60;;;0.50;;
3589;SDS011;1809;48.470;9.226;2023-11-19T04:37:36;0.50;;;0.50;;
3589;SDS011;1809;48.470;9.226;2023-11-19T04:40:02;0.57;;;0.57;;
3589;SDS011;1809;48.470;9.226;2023-11-19T04:42:28;0.50;;;0.40;;
3589;SDS011;1809;48.470;9.226;2023-11-19T04:44:54;0.40;;;0.40;;
3589;SDS011;1809;48.470;9.226;2023-11-19T04:47:20;0.57;;;0.57;;
3589;SDS011;1809;48.470;9.226;2023-11-19T04:49:46;0.50;;;0.50;;
3589;SDS011;1809;48.470;9.226;2023-11-19T04:52:11;0.40;;;0.40;;
3589;SDS011;1809;48.470;9.226;2023-11-19T04:54:43;0.50;;;0.50;;
3589;SDS011;1809;48.470;9.226;2023-11-19T04:57:09;2.50;;;0.50;;
3589;SDS011;1809;48.470;9.226;2023-11-19T04:59:38;0.60;;;0.50;;
3589;SDS011;1809;48.470;9.226;2023-11-19T05:02:04;0.60;;;0.60;;
3589;SDS011;1809;48.470;9.226;2023-11-19T05:04:30;0.40;;;0.40;;
3589;SDS011;1809;48.470;9.226;2023-11-19T05:06:56;0.50;;;0.50;;
3589;SDS011;1809;48.470;9.226;2023-11-19T05:09:22;0.53;;;0.40;;
3589;SDS011;1809;48.470;9.226;2023-11-19T05:11:47;0.40;;;0.40;;
3589;SDS011;1809;48.470;9.226;2023-11-19T05:14:13;0.40;;;0.40;;
3589;SDS011;1809;48.470;9.226;2023-11-19T05:16:39;2.80;;;0.53;;
3589;SDS011;1809;48.470;9.226;2023-11-19T05:19:05;0.40;;;0.40;;
3589;SDS011;1809;48.470;9.226;2023-11-19T05:21:31;0.50;;;0.50;;
3589;SDS011;1809;48.470;9.226;2023-11-19T05:23:58;0.40;;;0.40;;
3589;SDS011;1809;48.470;9.226;2023-11-19T05:26:24;0.50;;;0.50;;
3589;SDS011;1809;48.470;9.226;2023-11-19T05:28:49;0.50;;;0.50;;
3589;SDS011;1809;48.470;9.226;2023-11-19T05:31:16;0.90;;;0.50;;
3589;SDS011;1809;48.470;9.226;2023-11-19T05:33:42;0.50;;;0.50;;
3589;SDS011;1809;48.470;9.226;2023-11-19T05:36:08;0.80;;;0.50;;
3589;SDS011;1809;48.470;9.226;2023-11-19T05:38:36;0.50;;;0.50;;
3589;SDS011;1809;48.470;9.226;2023-11-19T05:41:02;0.50;;;0.43;;
3589;SDS011;1809;48.470;9.226;2023-11-19T05:43:28;0.47;;;0.47;;
3589;SDS011;1809;48.470;9.226;2023-11-19T05:45:53;0.63;;;0.63;;
3589;SDS011;1809;48.470;9.226;2023-11-19T05:48:19;0.50;;;0.50;;
3589;SDS011;1809;48.470;9.226;2023-11-19T05:50:44;0.50;;;0.50;;
3589;SDS011;1809;48.470;9.226;2023-11-19T05:53:11;3.23;;;0.50;;
3589;SDS011;1809;48.470;9.226;2023-11-19T05:55:38;1.23;;;0.53;;
3589;SDS011;1809;48.470;9.226;2023-11-19T05:58:11;0.60;;;0.60;;
3589;SDS011;1809;48.470;9.226;2023-11-19T06:00:37;3.30;;;0.50;;
3589;SDS011;1809;48.470;9.226;2023-11-19T06:03:04;0.53;;;0.53;;
3589;SDS011;1809;48.470;9.226;2023-11-19T06:05:29;0.80;;;0.80;;
3589;SDS011;1809;48.470;9.226;2023-11-19T06:07:55;0.70;;;0.70;;
3589;SDS011;1809;48.470;9.226;2023-11-19T06:10:22;0.90;;;0.50;;
3589;SDS011;1809;48.470;9.226;2023-11-19T06:12:53;0.60;;;0.60;;
3589;SDS011;1809;48.470;9.226;2023-11-19T06:15:22;1.67;;;0.50;;
3589;SDS011;1809;48.470;9.226;2023-11-19T06:17:47;0.40;;;0.40;;
3589;SDS011;1809;48.470;9.226;2023-11-19T06:20:12;0.50;;;0.50;;
3589;SDS011;1809;48.470;9.226;2023-11-19T06:22:39;1.10;;;0.53;;
3589;SDS011;1809;48.470;9.226;2023-11-19T06:25:07;0.60;;;0.60;;
3589;SDS011;1809;48.470;9.226;2023-11-19T06:27:33;0.50;;;0.50;;
3589;SDS011;1809;48.470;9.226;2023-11-19T06:29:58;0.50;;;0.50;;
3589;SDS011;1809;48.470;9.226;2023-11-19T06:32:24;0.50;;;0.50;;
3589;SDS011;1809;48.470;9.226;2023-11-19T06:34:49;0.60;;;0.60;;
3589;SDS011;1809;48.470;9.226;2023-11-19T06:37:14;0.93;;;0.60;;
3589;SDS011;1809;48.470;9.226;2023-11-19T06:39:40;0.50;;;0.50;;
3589;SDS011;1809;48.470;9.226;2023-11-19T06:42:05;0.40;;;0.40;;
3589;SDS011;1809;48.470;9.226;2023-11-19T06:44:31;1.80;;;0.50;;
3589;SDS011;1809;48.470;9.226;2023-11-19T06:46:56;0.80;;;0.40;;
3589;SDS011;1809;48.470;9.226;2023-11-19T06:49:22;1.80;;;0.40;;
3589;SDS011;1809;48.470;9.226;2023-11-19T06:51:47;0.50;;;0.50;;
3589;SDS011;1809;48.470;9.226;2023-11-19T06:54:13;0.50;;;0.43;;
3589;SDS011;1809;48.470;9.226;2023-11-19T06:56:38;0.67;;;0.50;;
3589;SDS011;1809;48.470;9.226;2023-11-19T06:59:04;0.60;;;0.50;;
3589;SDS011;1809;48.470;9.226;2023-11-19T07:01:33;0.40;;;0.40;;
3589;SDS011;1809;48.470;9.226;2023-11-19T07:03:59;0.50;;;0.50;;
3589;SDS011;1809;48.470;9.226;2023-11-19T07:06:27;0.60;;;0.60;;
3589;SDS011;1809;48.470;9.226;2023-11-19T07:08:52;0.40;;;0.40;;
3589;SDS011;1809;48.470;9.226;2023-11-19T07:11:18;0.50;;;0.50;;
3589;SDS011;1809;48.470;9.226;2023-11-19T07:13:43;0.50;;;0.50;;
3589;SDS011;1809;48.470;9.226;2023-11-19T07:16:10;0.60;;;0.60;;
3589;SDS011;1809;48.470;9.226;2023-11-19T07:18:36;0.50;;;0.50;;
3589;SDS011;1809;48.470;9.226;2023-11-19T07:21:02;0.60;;;0.50;;
3589;SDS011;1809;48.470;9.226;2023-11-19T07:23:29;0.70;;;0.70;;
3589;SDS011;1809;48.470;9.226;2023-11-19T07:25:54;0.60;;;0.60;;
3589;SDS011;1809;48.470;9.226;2023-11-19T07:28:19;0.50;;;0.50;;
3589;SDS011;1809;48.470;9.226;2023-11-19T07:30:45;0.80;;;0.50;;
3589;SDS011;1809;48.470;9.226;2023-11-19T07:33:10;0.40;;;0.40;;
3589;SDS011;1809;48.470;9.226;2023-11-19T07:35:35;0.50;;;0.50;;
3589;SDS011;1809;48.470;9.226;2023-11-19T07:38:01;0.50;;;0.50;;
3589;SDS011;1809;48.470;9.226;2023-11-19T07:40:26;0.40;;;0.40;;
3589;SDS011;1809;48.470;9.226;2023-11-19T07:42:51;0.60;;;0.60;;
3589;SDS011;1809;48.470;9.226;2023-11-19T07:45:17;0.80;;;0.50;;
3589;SDS011;1809;48.470;9.226;2023-11-19T07:47:42;3.60;;;0.63;;
3589;SDS011;1809;48.470;9.226;2023-11-19T07:50:11;0.50;;;0.50;;
3589;SDS011;1809;48.470;9.226;2023-11-19T07:52:39;1.47;;;0.70;;
3589;SDS011;1809;48.470;9.226;2023-11-19T07:55:04;2.60;;;0.60;;
3589;SDS011;1809;48.470;9.226;2023-11-19T07:57:30;0.90;;;0.60;;
3589;SDS011;1809;48.470;9.226;2023-11-19T07:59:56;0.87;;;0.87;;
3589;SDS011;1809;48.470;9.226;2023-11-19T08:02:22;0.70;;;0.70;;
3589;SDS011;1809;48.470;9.226;2023-11-19T08:04:49;0.60;;;0.60;;
3589;SDS011;1809;48.470;9.226;2023-11-19T08:07:16;0.60;;;0.60;;
3589;SDS011;1809;48.470;9.226;2023-11-19T08:09:42;0.60;;;0.60;;
3589;SDS011;1809;48.470;9.226;2023-11-19T08:12:08;2.23;;;0.63;;
3589;SDS011;1809;48.470;9.226;2023-11-19T08:14:33;1.23;;;0.70;;
3589;SDS011;1809;48.470;9.226;2023-11-19T08:16:59;1.40;;;1.00;;
3589;SDS011;1809;48.470;9.226;2023-11-19T08:19:24;0.70;;;0.70;;
3589;SDS011;1809;48.470;9.226;2023-11-19T08:21:50;0.80;;;0.70;;
3589;SDS011;1809;48.470;9.226;2023-11-19T08:24:15;0.70;;;0.70;;
3589;SDS011;1809;48.470;9.226;2023-11-19T08:26:40;1.80;;;0.67;;
3589;SDS011;1809;48.470;9.226;2023-11-19T08:29:06;0.70;;;0.70;;
3589;SDS011;1809;48.470;9.226;2023-11-19T08:31:32;1.63;;;0.80;;
3589;SDS011;1809;48.470;9.226;2023-11-19T08:33:57;1.60;;;0.70;;
3589;SDS011;1809;48.470;9.226;2023-11-19T08:36:22;0.70;;;0.70;;
3589;SDS011;1809;48.470;9.226;2023-11-19T08:38:48;2.17;;;0.83;;
3589;SDS011;1809;48.470;9.226;2023-11-19T08:41:13;0.67;;;0.67;;
3589;SDS011;1809;48.470;9.226;2023-11-19T08:43:38;4.40;;;0.60;;
3589;SDS011;1809;48.470;9.226;2023-11-19T08:46:08;0.77;;;0.70;;
3589;SDS011;1809;48.470;9.226;2023-11-19T08:48:34;0.90;;;0.90;;
3589;SDS011;1809;48.470;9.226;2023-11-19T08:51:00;0.50;;;0.50;;
3589;SDS011;1809;48.470;9.226;2023-11-19T08:53:25;0.70;;;0.70;;
3589;SDS011;1809;48.470;9.226;2023-11-19T08:55:50;0.70;;;0.70;;
3589;SDS011;1809;48.470;9.226;2023-11-19T08:58:16;0.60;;;0.60;;
3589;SDS011;1809;48.470;9.226;2023-11-19T09:00:41;0.60;;;0.60;;
3589;SDS011;1809;48.470;9.226;2023-11-19T09:03:06;10.00;;;0.80;;
3589;SDS011;1809;48.470;9.226;2023-11-19T09:05:33;1.00;;;0.70;;
3589;SDS011;1809;48.470;9.226;2023-11-19T09:07:58;0.67;;;0.60;;
3589;SDS011;1809;48.470;9.226;2023-11-19T09:10:24;4.00;;;0.67;;
3589;SDS011;1809;48.470;9.226;2023-11-19T09:12:49;0.60;;;0.60;;
3589;SDS011;1809;48.470;9.226;2023-11-19T09:15:14;0.60;;;0.60;;
3589;SDS011;1809;48.470;9.226;2023-11-19T09:17:40;0.60;;;0.60;;
3589;SDS011;1809;48.470;9.226;2023-11-19T09:20:06;0.60;;;0.60;;
3589;SDS011;1809;48.470;9.226;2023-11-19T09:22:32;1.10;;;1.10;;
3589;SDS011;1809;48.470;9.226;2023-11-19T09:24:58;1.60;;;0.80;;
3589;SDS011;1809;48.470;9.226;2023-11-19T09:27:25;1.87;;;1.17;;
3589;SDS011;1809;48.470;9.226;2023-11-19T09:29:51;0.57;;;0.57;;
3589;SDS011;1809;48.470;9.226;2023-11-19T09:32:22;0.63;;;0.63;;
3589;SDS011;1809;48.470;9.226;2023-11-19T09:34:47;1.37;;;0.70;;
3589;SDS011;1809;48.470;9.226;2023-11-19T09:37:13;1.10;;;1.00;;
3589;SDS011;1809;48.470;9.226;2023-11-19T09:39:38;0.60;;;0.60;;
3589;SDS011;1809;48.470;9.226;2023-11-19T09:42:03;4.30;;;0.70;;
3589;SDS011;1809;48.470;9.226;2023-11-19T09:44:29;0.60;;;0.60;;
3589;SDS011;1809;48.470;9.226;2023-11-19T09:46:54;0.60;;;0.53;;
3589;SDS011;1809;48.470;9.226;2023-11-19T09:49:23;0.80;;;0.60;;
3589;SDS011;1809;48.470;9.226;2023-11-19T09:51:52;0.60;;;0.60;;
3589;SDS011;1809;48.470;9.226;2023-11-19T09:54:17;2.43;;;0.60;;
3589;SDS011;1809;48.470;9.226;2023-11-19T09:56:43;0.60;;;0.60;;
3589;SDS011;1809;48.470;9.226;2023-11-19T09:59:08;0.70;;;0.70;;
3589;SDS011;1809;48.470;9.226;2023-11-19T10:01:35;1.37;;;0.73;;
3589;SDS011;1809;48.470;9.226;2023-11-19T10:04:03;2.10;;;0.53;;
3589;SDS011;1809;48.470;9.226;2023-11-19T10:06:28;0.63;;;0.63;;
3589;SDS011;1809;48.470;9.226;2023-11-19T10:08:54;0.70;;;0.70;;
3589;SDS011;1809;48.470;9.226;2023-11-19T10:11:20;0.80;;;0.80;;
3589;SDS011;1809;48.470;9.226;2023-11-19T10:13:46;0.97;;;0.90;;
3589;SDS011;1809;48.470;9.226;2023-11-19T10:16:13;0.60;;;0.60;;
3589;SDS011;1809;48.470;9.226;2023-11-19T10:18:48;0.70;;;0.70;;
3589;SDS011;1809;48.470;9.226;2023-11-19T10:21:17;1.57;;;0.60;;
3589;SDS011;1809;48.470;9.226;2023-11-19T10:23:53;3.80;;;0.70;;
3589;SDS011;1809;48.470;9.226;2023-11-19T10:26:24;0.50;;;0.50;;
3589;SDS011;1809;48.470;9.226;2023-11-19T10:28:50;0.90;;;0.90;;
3589;SDS011;1809;48.470;9.226;2023-11-19T10:31:16;1.23;;;0.80;;
3589;SDS011;1809;48.470;9.226;2023-11-19T10:33:46;0.60;;;0.60;;
3589;SDS011;1809;48.470;9.226;2023-11-19T10:36:12;0.87;;;0.80;;
3589;SDS011;1809;48.470;9.226;2023-11-19T10:38:38;0.70;;;0.70;;
3589;SDS011;1809;48.470;9.226;2023-11-19T10:41:04;0.63;;;0.63;;
3589;SDS011;1809;48.470;9.226;2023-11-19T10:43:44;0.60;;;0.60;;
3589;SDS011;1809;48.470;9.226;2023-11-19T10:46:10;0.60;;;0.60;;
3589;SDS011;1809;48.470;9.226;2023-11-19T10:48:36;0.87;;;0.60;;
3589;SDS011;1809;48.470;9.226;2023-11-19T10:51:02;1.27;;;0.70;;
3589;SDS011;1809;48.470;9.226;2023-11-19T10:53:33;0.70;;;0.70;;
3589;SDS011;1809;48.470;9.226;2023-11-19T10:56:01;0.70;;;0.70;;
3589;SDS011;1809;48.470;9.226;2023-11-19T10:58:29;0.50;;;0.50;;
3589;SDS011;1809;48.470;9.226;2023-11-19T11:00:59;1.17;;;0.50;;
3589;SDS011;1809;48.470;9.226;2023-11-19T11:03:31;0.70;;;0.70;;
3589;SDS011;1809;48.470;9.226;2023-11-19T11:06:04;0.60;;;0.60;;
3589;SDS011;1809;48.470;9.226;2023-11-19T11:08:30;0.70;;;0.70;;
3589;SDS011;1809;48.470;9.226;2023-11-19T11:10:56;0.77;;;0.77;;
3589;SDS011;1809;48.470;9.226;2023-11-19T11:13:23;1.27;;;0.60;;
3589;SDS011;1809;48.470;9.226;2023-11-19T11:15:49;2.10;;;0.90;;
3589;SDS011;1809;48.470;9.226;2023-11-19T11:18:15;0.73;;;0.70;;
3589;SDS011;1809;48.470;9.226;2023-11-19T11:20:42;0.60;;;0.60;;
3589;SDS011;1809;48.470;9.226;2023-11-19T11:39:42;0.60;;;0.60;;
3589;SDS011;1809;48.470;9.226;2023-11-19T11:47:48;0.77;;;0.77;;
3589;SDS011;1809;48.470;9.226;2023-11-19T11:58:17;0.73;;;0.73;;
3589;SDS011;1809;48.470;9.226;2023-11-19T12:00:43;1.67;;;0.80;;
3589;SDS011;1809;48.470;9.226;2023-11-19T12:03:12;1.00;;;0.77;;
3589;SDS011;1809;48.470;9.226;2023-11-19T12:05:38;3.03;;;1.00;;
3589;SDS011;1809;48.470;9.226;2023-11-19T12:08:06;0.70;;;0.70;;
3589;SDS011;1809;48.470;9.226;2023-11-19T12:10:48;0.90;;;0.80;;
3589;SDS011;1809;48.470;9.226;2023-11-19T12:13:15;1.67;;;1.07;;
3589;SDS011;1809;48.470;9.226;2023-11-19T12:18:23;0.63;;;0.63;;
3589;SDS011;1809;48.470;9.226;2023-11-19T12:20:51;1.53;;;1.40;;
3589;SDS011;1809;48.470;9.226;2023-11-19T12:23:16;0.60;;;0.60;;
3589;SDS011;1809;48.470;9.226;2023-11-19T12:25:42;0.80;;;0.80;;
3589;SDS011;1809;48.470;9.226;2023-11-19T12:28:11;1.00;;;0.80;;
3589;SDS011;1809;48.470;9.226;2023-11-19T12:30:38;0.90;;;0.90;;
3589;SDS011;1809;48.470;9.226;2023-11-19T12:33:07;2.03;;;1.60;;
3589;SDS011;1809;48.470;9.226;2023-11-19T12:35:42;0.80;;;0.80;;
3589;SDS011;1809;48.470;9.226;2023-11-19T12:38:18;1.30;;;0.80;;
3589;SDS011;1809;48.470;9.226;2023-11-19T12:40:47;1.53;;;0.80;;
3589;SDS011;1809;48.470;9.226;2023-11-19T12:43:28;1.07;;;0.70;;
3589;SDS011;1809;48.470;9.226;2023-11-19T12:45:53;1.10;;;0.70;;
3589;SDS011;1809;48.470;9.226;2023-11-19T12:48:18;1.10;;;0.70;;
3589;SDS011;1809;48.470;9.226;2023-11-19T12:50:53;1.00;;;0.70;;
3589;SDS011;1809;48.470;9.226;2023-11-19T12:53:21;0.60;;;0.60;;
3589;SDS011;1809;48.470;9.226;2023-11-19T12:55:47;0.80;;;0.80;;
3589;SDS011;1809;48.470;9.226;2023-11-19T12:58:32;0.80;;;0.60;;
3589;SDS011;1809;48.470;9.226;2023-11-19T13:01:00;1.57;;;0.60;;
3589;SDS011;1809;48.470;9.226;2023-11-19T13:03:30;1.80;;;0.67;;
3589;SDS011;1809;48.470;9.226;2023-11-19T13:08:35;2.07;;;0.70;;
3589;SDS011;1809;48.470;9.226;2023-11-19T13:11:02;0.70;;;0.70;;
3589;SDS011;1809;48.470;9.226;2023-11-19T13:13:28;0.70;;;0.50;;
3589;SDS011;1809;48.470;9.226;2023-11-19T13:16:01;0.77;;;0.70;;
3589;SDS011;1809;48.470;9.226;2023-11-19T13:18:28;0.80;;;0.60;;
3589;SDS011;1809;48.470;9.226;2023-11-19T13:20:53;0.80;;;0.70;;
3589;SDS011;1809;48.470;9.226;2023-11-19T13:23:22;0.90;;;0.60;;
3589;SDS011;1809;48.470;9.226;2023-11-19T13:25:47;0.90;;;0.70;;
3589;SDS011;1809;48.470;9.226;2023-11-19T13:28:13;1.10;;;1.10;;
3589;SDS011;1809;48.470;9.226;2023-11-19T13:30:39;1.47;;;0.80;;
3589;SDS011;1809;48.470;9.226;2023-11-19T13:33:04;1.07;;;0.70;;
3589;SDS011;1809;48.470;9.226;2023-11-19T13:35:30;2.90;;;0.70;;
3589;SDS011;1809;48.470;9.226;2023-11-19T13:37:55;1.53;;;1.43;;
3589;SDS011;1809;48.470;9.226;2023-11-19T13:40:20;0.67;;;0.67;;
3589;SDS011;1809;48.470;9.226;2023-11-19T13:42:47;0.93;;;0.83;;
3589;SDS011;1809;48.470;9.226;2023-11-19T13:45:13;1.87;;;1.00;;
3589;SDS011;1809;48.470;9.226;2023-11-19T13:47:40;2.33;;;1.03;;
3589;SDS011;1809;48.470;9.226;2023-11-19T13:50:09;1.13;;;0.90;;
3589;SDS011;1809;48.470;9.226;2023-11-19T13:52:39;5.60;;;1.63;;
3589;SDS011;1809;48.470;9.226;2023-11-19T13:55:09;2.33;;;2.13;;
3589;SDS011;1809;48.470;9.226;2023-11-19T13:57:43;2.03;;;1.93;;
3589;SDS011;1809;48.470;9.226;2023-11-19T14:00:12;3.23;;;2.27;;
3589;SDS011;1809;48.470;9.226;2023-11-19T14:02:41;1.07;;;0.97;;
3589;SDS011;1809;48.470;9.226;2023-11-19T14:05:08;1.10;;;1.00;;
3589;SDS011;1809;48.470;9.226;2023-11-19T14:07:34;2.13;;;1.57;;
3589;SDS011;1809;48.470;9.226;2023-11-19T14:10:00;2.53;;;2.33;;
3589;SDS011;1809;48.470;9.226;2023-11-19T14:12:26;1.97;;;1.87;;
3589;SDS011;1809;48.470;9.226;2023-11-19T14:14:51;2.40;;;2.20;;
3589;SDS011;1809;48.470;9.226;2023-11-19T14:17:16;2.70;;;1.53;;
3589;SDS011;1809;48.470;9.226;2023-11-19T14:19:43;2.00;;;1.17;;
3589;SDS011;1809;48.470;9.226;2023-11-19T14:22:09;0.70;;;0.67;;
3589;SDS011;1809;48.470;9.226;2023-11-19T14:24:34;1.00;;;0.80;;
3589;SDS011;1809;48.470;9.226;2023-11-19T14:27:00;3.00;;;0.70;;
3589;SDS011;1809;48.470;9.226;2023-11-19T14:29:26;6.07;;;4.17;;
3589;SDS011;1809;48.470;9.226;2023-11-19T14:31:52;2.07;;;1.40;;
3589;SDS011;1809;48.470;9.226;2023-11-19T14:34:21;3.37;;;1.30;;
3589;SDS011;1809;48.470;9.226;2023-11-19T14:36:47;1.30;;;1.20;;
3589;SDS011;1809;48.470;9.226;2023-11-19T14:39:12;3.90;;;3.53;;
3589;SDS011;1809;48.470;9.226;2023-11-19T14:41:38;2.33;;;1.10;;
3589;SDS011;1809;48.470;9.226;2023-11-19T14:44:03;0.97;;;0.60;;
3589;SDS011;1809;48.470;9.226;2023-11-19T14:46:29;0.83;;;0.70;;
3589;SDS011;1809;48.470;9.226;2023-11-19T14:48:54;0.60;;;0.60;;
3589;SDS011;1809;48.470;9.226;2023-11-19T14:51:20;1.67;;;0.80;;
3589;SDS011;1809;48.470;9.226;2023-11-19T14:53:45;0.63;;;0.63;;
3589;SDS011;1809;48.470;9.226;2023-11-19T14:56:11;0.60;;;0.60;;
3589;SDS011;1809;48.470;9.226;2023-11-19T14:58:37;0.60;;;0.60;;
3589;SDS011;1809;48.470;9.226;2023-11-19T15:01:03;4.83;;;0.80;;
3589;SDS011;1809;48.470;9.226;2023-11-19T15:03:29;1.87;;;0.80;;
3589;SDS011;1809;48.470;9.226;2023-11-19T15:05:55;0.93;;;0.80;;
3589;SDS011;1809;48.470;9.226;2023-11-19T15:08:21;0.60;;;0.50;;
3589;SDS011;1809;48.470;9.226;2023-11-19T15:10:46;1.10;;;1.00;;
3589;SDS011;1809;48.470;9.226;2023-11-19T15:13:12;0.60;;;0.60;;
3589;SDS011;1809;48.470;9.226;2023-11-19T15:15:37;1.47;;;0.70;;
3589;SDS011;1809;48.470;9.226;2023-11-19T15:18:04;0.70;;;0.70;;
3589;SDS011;1809;48.470;9.226;2023-11-19T15:20:29;1.17;;;0.70;;
3589;SDS011;1809;48.470;9.226;2023-11-19T15:22:56;0.60;;;0.60;;
3589;SDS011;1809;48.470;9.226;2023-11-19T15:25:24;0.80;;;0.60;;
3589;SDS011;1809;48.470;9.226;2023-11-19T15:27:50;0.80;;;0.70;;
3589;SDS011;1809;48.470;9.226;2023-11-19T15:30:15;1.33;;;0.60;;
3589;SDS011;1809;48.470;9.226;2023-11-19T15:32:41;0.70;;;0.70;;
3589;SDS011;1809;48.470;9.226;2023-11-19T15:35:08;0.87;;;0.87;;
3589;SDS011;1809;48.470;9.226;2023-11-19T15:37:33;1.07;;;0.97;;
3589;SDS011;1809;48.470;9.226;2023-11-19T15:40:00;0.60;;;0.60;;
3589;SDS011;1809;48.470;9.226;2023-11-19T15:42:25;1.33;;;1.00;;
3589;SDS011;1809;48.470;9.226;2023-11-19T15:44:50;1.27;;;1.07;;
3589;SDS011;1809;48.470;9.226;2023-11-19T15:47:16;1.30;;;0.63;;
3589;SDS011;1809;48.470;9.226;2023-11-19T15:49:41;1.10;;;0.80;;